createdAt,value
2022-10-25T00:00:47.798Z,1007.34
2022-10-25T00:01:48.101Z,1007.32
2022-10-25T00:02:47.833Z,1007.29
2022-10-25T00:03:47.773Z,1007.31
2022-10-25T00:04:47.752Z,1007.26
2022-10-25T00:05:47.765Z,1007.32
2022-10-25T00:06:47.730Z,1007.28
2022-10-25T00:07:47.971Z,1007.28
2022-10-25T00:08:47.722Z,1007.27
2022-10-25T00:09:47.700Z,1007.28
2022-10-25T00:10:47.690Z,1007.24
2022-10-25T00:11:47.679Z,1007.25
2022-10-25T00:12:47.667Z,1007.27
2022-10-25T00:13:47.669Z,1007.28
2022-10-25T00:14:47.644Z,1007.21
2022-10-25T00:15:47.637Z,1007.23
2022-10-25T00:16:47.623Z,1007.23
2022-10-25T00:17:47.941Z,1007.19
2022-10-25T00:18:47.614Z,1007.22
2022-10-25T00:19:47.593Z,1007.22
2022-10-25T00:20:47.641Z,1007.23
2022-10-25T00:21:47.588Z,1007.28
2022-10-25T00:22:47.987Z,1007.27
2022-10-25T00:23:47.552Z,1007.31
2022-10-25T00:24:47.536Z,1007.30
2022-10-25T00:25:47.527Z,1007.31
2022-10-25T00:26:47.513Z,1007.28
2022-10-25T00:27:47.519Z,1007.34
2022-10-25T00:28:47.496Z,1007.31
2022-10-25T00:29:47.484Z,1007.30
2022-10-25T00:30:47.474Z,1007.32
2022-10-25T00:31:47.463Z,1007.29
2022-10-25T00:32:47.739Z,1007.33
2022-10-25T00:33:47.440Z,1007.29
2022-10-25T00:34:47.428Z,1007.33
2022-10-25T00:35:47.420Z,1007.32
2022-10-25T00:36:47.406Z,1007.25
2022-10-25T00:37:47.432Z,1007.29
2022-10-25T00:38:47.385Z,1007.27
2022-10-25T00:39:47.382Z,1007.27
2022-10-25T00:40:54.957Z,1007.26
2022-10-25T00:41:47.354Z,1007.26
2022-10-25T00:42:47.701Z,1007.28
2022-10-25T00:43:47.333Z,1007.25
2022-10-25T00:44:47.319Z,1007.24
2022-10-25T00:45:47.344Z,1007.27
2022-10-25T00:46:47.297Z,1007.25
2022-10-25T00:47:47.596Z,1007.19
2022-10-25T00:48:47.280Z,1007.25
2022-10-25T00:49:47.267Z,1007.31
2022-10-25T00:50:47.253Z,1007.30
2022-10-25T00:51:47.245Z,1007.31
2022-10-25T00:52:47.270Z,1007.31
2022-10-25T00:53:47.240Z,1007.30
2022-10-25T00:54:47.211Z,1007.32
2022-10-25T00:55:47.200Z,1007.32
2022-10-25T00:56:47.188Z,1007.32
2022-10-25T00:57:47.491Z,1007.30
2022-10-25T00:58:47.167Z,1007.36
2022-10-25T00:59:47.158Z,1007.32
2022-10-25T01:00:47.145Z,1007.33
2022-10-25T01:01:47.228Z,1007.33
2022-10-25T01:02:47.255Z,1007.29
2022-10-25T01:03:47.113Z,1007.33
2022-10-25T01:04:47.102Z,1007.35
2022-10-25T01:05:47.093Z,1007.34
2022-10-25T01:06:47.082Z,1007.35
2022-10-25T01:07:47.367Z,1007.33
2022-10-25T01:08:47.060Z,1007.30
2022-10-25T01:09:47.069Z,1007.30
2022-10-25T01:10:47.038Z,1007.29
2022-10-25T01:11:47.027Z,1007.26
2022-10-25T01:12:49.883Z,1007.27
2022-10-25T01:13:48.009Z,1007.32
2022-10-25T01:14:46.994Z,1007.28
2022-10-25T01:15:46.986Z,1007.30
2022-10-25T01:16:46.982Z,1007.28
2022-10-25T01:17:46.965Z,1007.27
2022-10-25T01:18:46.952Z,1007.27
2022-10-25T01:19:46.947Z,1007.26
2022-10-25T01:20:46.930Z,1007.23
2022-10-25T01:21:46.935Z,1007.24
2022-10-25T01:22:47.152Z,1007.23
2022-10-25T01:23:46.896Z,1007.22
2022-10-25T01:24:46.889Z,1007.23
2022-10-25T01:25:46.949Z,1007.23
2022-10-25T01:26:46.877Z,1007.26
2022-10-25T01:27:46.890Z,1007.22
2022-10-25T01:28:46.842Z,1007.24
2022-10-25T01:29:46.832Z,1007.25
2022-10-25T01:30:46.880Z,1007.27
2022-10-25T01:31:46.823Z,1007.30
2022-10-25T01:32:47.103Z,1007.29
2022-10-25T01:33:46.786Z,1007.31
2022-10-25T01:34:46.777Z,1007.29
2022-10-25T01:35:46.772Z,1007.27
2022-10-25T01:36:46.766Z,1007.28
2022-10-25T01:37:47.022Z,1007.29
2022-10-25T01:38:46.735Z,1007.32
2022-10-25T01:39:46.722Z,1007.31
2022-10-25T01:40:46.757Z,1007.31
2022-10-25T01:41:46.737Z,1007.27
2022-10-25T01:42:46.691Z,1007.27
2022-10-25T01:43:46.678Z,1007.25
2022-10-25T01:44:46.670Z,1007.26
2022-10-25T01:45:46.770Z,1007.29
2022-10-25T01:46:46.659Z,1007.25
2022-10-25T01:47:46.970Z,1007.25
2022-10-25T01:48:46.627Z,1007.27
2022-10-25T01:49:46.625Z,1007.25
2022-10-25T01:50:46.714Z,1007.23
2022-10-25T01:51:46.603Z,1007.21
2022-10-25T01:52:46.626Z,1007.24
2022-10-25T01:53:46.571Z,1007.23
2022-10-25T01:54:46.563Z,1007.20
2022-10-25T01:55:46.552Z,1007.20
2022-10-25T01:56:46.551Z,1007.18
2022-10-25T01:57:46.753Z,1007.21
2022-10-25T01:58:46.520Z,1007.22
2022-10-25T01:59:46.506Z,1007.18
2022-10-25T02:00:46.529Z,1007.17
2022-10-25T02:01:46.500Z,1007.17
2022-10-25T02:02:46.765Z,1007.16
2022-10-25T02:03:46.471Z,1007.16
2022-10-25T02:04:46.453Z,1007.14
2022-10-25T02:05:46.444Z,1007.23
2022-10-25T02:06:46.444Z,1007.19
2022-10-25T02:07:46.422Z,1007.19
2022-10-25T02:08:46.413Z,1007.24
2022-10-25T02:09:46.399Z,1007.22
2022-10-25T02:10:46.388Z,1007.21
2022-10-25T02:11:46.388Z,1007.23
2022-10-25T02:12:46.696Z,1007.24
2022-10-25T02:13:46.372Z,1007.21
2022-10-25T02:14:46.352Z,1007.26
2022-10-25T02:15:46.422Z,1007.21
2022-10-25T02:16:46.340Z,1007.24
2022-10-25T02:17:46.326Z,1007.24
2022-10-25T02:18:46.299Z,1007.26
2022-10-25T02:19:46.293Z,1007.25
2022-10-25T02:20:46.951Z,1007.25
2022-10-25T02:21:46.279Z,1007.25
2022-10-25T02:22:46.591Z,1007.26
2022-10-25T02:23:46.250Z,1007.27
2022-10-25T02:24:46.237Z,1007.27
2022-10-25T02:25:46.225Z,1007.31
2022-10-25T02:26:46.295Z,1007.31
2022-10-25T02:27:46.569Z,1007.33
2022-10-25T02:28:46.218Z,1007.33
2022-10-25T02:29:46.206Z,1007.35
2022-10-25T02:30:46.172Z,1007.36
2022-10-25T02:31:46.171Z,1007.33
2022-10-25T02:32:46.151Z,1007.37
2022-10-25T02:33:46.140Z,1007.34
2022-10-25T02:34:46.128Z,1007.36
2022-10-25T02:35:46.116Z,1007.38
2022-10-25T02:36:46.117Z,1007.36
2022-10-25T02:37:46.377Z,1007.37
2022-10-25T02:38:46.088Z,1007.41
2022-10-25T02:39:46.076Z,1007.32
2022-10-25T02:40:46.070Z,1007.29
2022-10-25T02:41:46.063Z,1007.30
2022-10-25T02:42:46.042Z,1007.34
2022-10-25T02:43:46.037Z,1007.34
2022-10-25T02:44:46.022Z,1007.32
2022-10-25T02:45:46.076Z,1007.37
2022-10-25T02:46:46.011Z,1007.33
2022-10-25T02:47:46.349Z,1007.35
2022-10-25T02:48:45.978Z,1007.39
2022-10-25T02:49:45.966Z,1007.36
2022-10-25T02:50:45.956Z,1007.36
2022-10-25T02:51:46.015Z,1007.36
2022-10-25T02:52:46.452Z,1007.32
2022-10-25T02:53:45.937Z,1007.34
2022-10-25T02:54:45.912Z,1007.40
2022-10-25T02:55:45.904Z,1007.37
2022-10-25T02:56:45.903Z,1007.38
2022-10-25T02:57:45.882Z,1007.34
2022-10-25T02:58:45.869Z,1007.34
2022-10-25T02:59:45.859Z,1007.31
2022-10-25T03:00:45.989Z,1007.37
2022-10-25T03:01:45.923Z,1007.33
2022-10-25T03:02:46.186Z,1007.38
2022-10-25T03:03:45.812Z,1007.33
2022-10-25T03:04:45.805Z,1007.39
2022-10-25T03:05:45.791Z,1007.45
2022-10-25T03:06:45.795Z,1007.42
2022-10-25T03:07:45.769Z,1007.48
2022-10-25T03:08:45.765Z,1007.48
2022-10-25T03:09:45.750Z,1007.45
2022-10-25T03:10:45.739Z,1007.50
2022-10-25T03:11:45.740Z,1007.51
2022-10-25T03:12:46.029Z,1007.49
2022-10-25T03:13:45.706Z,1007.49
2022-10-25T03:14:45.698Z,1007.48
2022-10-25T03:15:45.692Z,1007.53
2022-10-25T03:16:45.686Z,1007.53
2022-10-25T03:17:46.065Z,1007.51
2022-10-25T03:18:45.662Z,1007.53
2022-10-25T03:19:45.641Z,1007.53
2022-10-25T03:20:45.635Z,1007.55
2022-10-25T03:21:45.629Z,1007.55
2022-10-25T03:22:45.609Z,1007.59
2022-10-25T03:23:45.615Z,1007.58
2022-10-25T03:24:45.610Z,1007.58
2022-10-25T03:25:45.599Z,1007.60
2022-10-25T03:26:45.579Z,1007.56
2022-10-25T03:27:45.914Z,1007.60
2022-10-25T03:28:45.547Z,1007.58
2022-10-25T03:29:45.534Z,1007.55
2022-10-25T03:30:45.546Z,1007.61
2022-10-25T03:31:45.526Z,1007.61
2022-10-25T03:32:45.505Z,1007.61
2022-10-25T03:33:45.514Z,1007.63
2022-10-25T03:34:45.482Z,1007.72
2022-10-25T03:35:45.511Z,1007.64
2022-10-25T03:36:45.492Z,1007.68
2022-10-25T03:37:45.715Z,1007.69
2022-10-25T03:38:45.435Z,1007.70
2022-10-25T03:39:45.426Z,1007.71
2022-10-25T03:40:45.432Z,1007.68
2022-10-25T03:41:45.403Z,1007.68
2022-10-25T03:42:45.417Z,1007.73
2022-10-25T03:43:45.382Z,1007.71
2022-10-25T03:44:45.373Z,1007.75
2022-10-25T03:45:45.374Z,1007.76
2022-10-25T03:46:45.353Z,1007.71
2022-10-25T03:47:45.633Z,1007.76
2022-10-25T03:48:45.343Z,1007.72
2022-10-25T03:49:45.338Z,1007.75
2022-10-25T03:50:45.323Z,1007.74
2022-10-25T03:51:45.300Z,1007.73
2022-10-25T03:52:45.287Z,1007.77
2022-10-25T03:53:45.274Z,1007.77
2022-10-25T03:54:45.292Z,1007.82
2022-10-25T03:55:45.350Z,1007.82
2022-10-25T03:56:45.243Z,1007.82
2022-10-25T03:57:45.582Z,1007.82
2022-10-25T03:58:45.222Z,1007.86
2022-10-25T03:59:45.238Z,1007.87
2022-10-25T04:00:45.262Z,1007.89
2022-10-25T04:01:45.305Z,1007.86
2022-10-25T04:02:45.220Z,1007.85
2022-10-25T04:03:45.174Z,1007.88
2022-10-25T04:04:45.158Z,1007.87
2022-10-25T04:05:45.162Z,1007.89
2022-10-25T04:06:45.153Z,1007.88
2022-10-25T04:07:45.515Z,1007.90
2022-10-25T04:08:45.115Z,1007.92
2022-10-25T04:09:45.102Z,1007.93
2022-10-25T04:10:45.093Z,1007.96
2022-10-25T04:11:45.092Z,1007.97
2022-10-25T04:12:45.095Z,1007.98
2022-10-25T04:13:45.057Z,1007.96
2022-10-25T04:14:45.049Z,1007.95
2022-10-25T04:15:45.041Z,1007.96
2022-10-25T04:16:45.049Z,1007.95
2022-10-25T04:17:45.330Z,1007.94
2022-10-25T04:18:45.006Z,1008.00
2022-10-25T04:19:44.993Z,1008.00
2022-10-25T04:20:45.069Z,1007.99
2022-10-25T04:21:45.004Z,1007.96
2022-10-25T04:22:44.982Z,1007.98
2022-10-25T04:23:44.949Z,1008.02
2022-10-25T04:24:44.949Z,1008.02
2022-10-25T04:25:44.930Z,1007.99
2022-10-25T04:26:44.933Z,1008.02
2022-10-25T04:27:45.224Z,1008.00
2022-10-25T04:28:44.897Z,1007.98
2022-10-25T04:29:44.886Z,1008.00
2022-10-25T04:30:44.878Z,1007.99
2022-10-25T04:31:44.873Z,1008.00
2022-10-25T04:32:45.243Z,1008.01
2022-10-25T04:33:48.067Z,1008.04
2022-10-25T04:34:44.834Z,1008.00
2022-10-25T04:35:44.857Z,1008.03
2022-10-25T04:36:44.820Z,1008.00
2022-10-25T04:37:44.817Z,1007.98
2022-10-25T04:38:44.795Z,1007.99
2022-10-25T04:39:44.778Z,1007.99
2022-10-25T04:40:44.771Z,1008.02
2022-10-25T04:41:44.768Z,1007.98
2022-10-25T04:42:45.155Z,1007.96
2022-10-25T04:43:44.736Z,1007.94
2022-10-25T04:44:44.726Z,1007.95
2022-10-25T04:45:44.715Z,1007.97
2022-10-25T04:46:47.785Z,1007.98
2022-10-25T04:47:44.692Z,1007.94
2022-10-25T04:48:44.682Z,1008.01
2022-10-25T04:49:44.669Z,1008.01
2022-10-25T04:50:44.660Z,1008.01
2022-10-25T04:51:44.732Z,1007.97
2022-10-25T04:52:44.905Z,1007.97
2022-10-25T04:53:44.648Z,1007.97
2022-10-25T04:54:44.616Z,1007.97
2022-10-25T04:55:44.651Z,1007.97
2022-10-25T04:56:44.607Z,1007.98
2022-10-25T04:57:44.587Z,1007.99
2022-10-25T04:58:44.573Z,1007.99
2022-10-25T04:59:44.576Z,1007.99
2022-10-25T05:00:44.552Z,1008.02
2022-10-25T05:01:44.675Z,1008.06
2022-10-25T05:02:44.825Z,1008.04
2022-10-25T05:03:44.518Z,1008.05
2022-10-25T05:04:44.508Z,1008.07
2022-10-25T05:05:44.565Z,1008.04
2022-10-25T05:06:44.501Z,1008.04
2022-10-25T05:07:44.476Z,1008.04
2022-10-25T05:08:44.465Z,1008.05
2022-10-25T05:09:47.243Z,1008.05
2022-10-25T05:10:44.442Z,1008.03
2022-10-25T05:11:44.449Z,1008.02
2022-10-25T05:12:44.610Z,1008.06
2022-10-25T05:13:44.417Z,1008.04
2022-10-25T05:14:44.401Z,1008.06
2022-10-25T05:15:44.405Z,1008.03
2022-10-25T05:16:44.383Z,1008.06
2022-10-25T05:17:44.374Z,1008.06
2022-10-25T05:18:44.354Z,1008.06
2022-10-25T05:19:44.346Z,1008.01
2022-10-25T05:20:44.348Z,1008.00
2022-10-25T05:21:44.326Z,1008.01
2022-10-25T05:22:44.476Z,1008.01
2022-10-25T05:23:44.304Z,1008.01
2022-10-25T05:24:44.309Z,1008.03
2022-10-25T05:25:44.313Z,1008.01
2022-10-25T05:26:44.269Z,1008.02
2022-10-25T05:27:44.261Z,1008.02
2022-10-25T05:28:44.260Z,1008.03
2022-10-25T05:29:44.240Z,1007.99
2022-10-25T05:30:44.238Z,1008.02
2022-10-25T05:31:44.218Z,1008.06
2022-10-25T05:32:44.340Z,1008.11
2022-10-25T05:33:44.215Z,1008.08
2022-10-25T05:34:44.183Z,1008.12
2022-10-25T05:35:44.196Z,1008.14
2022-10-25T05:36:44.163Z,1008.13
2022-10-25T05:37:44.154Z,1008.14
2022-10-25T05:38:44.165Z,1008.13
2022-10-25T05:39:44.129Z,1008.15
2022-10-25T05:40:44.118Z,1008.16
2022-10-25T05:41:44.138Z,1008.17
2022-10-25T05:42:44.344Z,1008.14
2022-10-25T05:43:44.087Z,1008.16
2022-10-25T05:44:44.077Z,1008.19
2022-10-25T05:45:44.068Z,1008.18
2022-10-25T05:46:44.063Z,1008.23
2022-10-25T05:47:44.044Z,1008.27
2022-10-25T05:48:48.510Z,1008.24
2022-10-25T05:49:44.030Z,1008.31
2022-10-25T05:50:44.022Z,1008.28
2022-10-25T05:51:44.012Z,1008.28
2022-10-25T05:52:44.156Z,1008.25
2022-10-25T05:53:43.983Z,1008.30
2022-10-25T05:54:43.968Z,1008.27
2022-10-25T05:55:43.963Z,1008.30
2022-10-25T05:56:43.954Z,1008.31
2022-10-25T05:57:44.001Z,1008.35
2022-10-25T05:58:43.924Z,1008.39
2022-10-25T05:59:43.915Z,1008.40
2022-10-25T06:00:43.904Z,1008.37
2022-10-25T06:01:44.198Z,1008.37
2022-10-25T06:02:43.938Z,1008.47
2022-10-25T06:03:43.879Z,1008.42
2022-10-25T06:04:43.860Z,1008.47
2022-10-25T06:05:43.855Z,1008.47
2022-10-25T06:06:43.850Z,1008.52
2022-10-25T06:07:43.828Z,1008.47
2022-10-25T06:08:43.817Z,1008.52
2022-10-25T06:09:43.857Z,1008.52
2022-10-25T06:10:43.864Z,1008.52
2022-10-25T06:11:43.797Z,1008.56
2022-10-25T06:12:43.822Z,1008.49
2022-10-25T06:13:43.813Z,1008.53
2022-10-25T06:14:43.751Z,1008.57
2022-10-25T06:15:43.742Z,1008.58
2022-10-25T06:16:43.755Z,1008.57
2022-10-25T06:17:43.723Z,1008.59
2022-10-25T06:18:43.707Z,1008.62
2022-10-25T06:19:43.703Z,1008.61
2022-10-25T06:20:43.689Z,1008.59
2022-10-25T06:21:43.687Z,1008.60
2022-10-25T06:22:43.814Z,1008.62
2022-10-25T06:23:43.659Z,1008.67
2022-10-25T06:24:43.666Z,1008.68
2022-10-25T06:25:43.634Z,1008.69
2022-10-25T06:26:43.633Z,1008.66
2022-10-25T06:27:43.613Z,1008.70
2022-10-25T06:28:43.602Z,1008.70
2022-10-25T06:29:43.608Z,1008.64
2022-10-25T06:30:43.579Z,1008.68
2022-10-25T06:31:43.585Z,1008.70
2022-10-25T06:32:43.611Z,1008.66
2022-10-25T06:33:43.547Z,1008.70
2022-10-25T06:34:43.535Z,1008.70
2022-10-25T06:35:43.548Z,1008.77
2022-10-25T06:36:43.534Z,1008.75
2022-10-25T06:37:43.504Z,1008.73
2022-10-25T06:38:43.504Z,1008.72
2022-10-25T06:39:43.484Z,1008.74
2022-10-25T06:40:51.118Z,1008.83
2022-10-25T06:41:43.475Z,1008.76
2022-10-25T06:42:43.626Z,1008.77
2022-10-25T06:43:43.450Z,1008.81
2022-10-25T06:44:43.429Z,1008.80
2022-10-25T06:45:43.439Z,1008.85
2022-10-25T06:47:15.516Z,1008.89
2022-10-25T06:47:44.399Z,1008.88
2022-10-25T06:48:43.385Z,1008.87
2022-10-25T06:49:43.374Z,1008.87
2022-10-25T06:50:43.500Z,1008.90
2022-10-25T06:51:43.382Z,1008.92
2022-10-25T06:52:43.362Z,1008.93
2022-10-25T06:53:43.331Z,1008.94
2022-10-25T06:54:43.323Z,1008.95
2022-10-25T06:55:43.310Z,1008.99
2022-10-25T06:56:43.309Z,1008.99
2022-10-25T06:57:43.288Z,1009.05
2022-10-25T06:58:43.276Z,1009.04
2022-10-25T06:59:43.268Z,1009.04
2022-10-25T07:00:45.987Z,1009.04
2022-10-25T07:01:43.396Z,1009.05
2022-10-25T07:02:43.232Z,1009.07
2022-10-25T07:03:43.222Z,1009.08
2022-10-25T07:04:43.210Z,1009.09
2022-10-25T07:05:43.199Z,1009.12
2022-10-25T07:06:43.200Z,1009.13
2022-10-25T07:07:43.183Z,1009.12
2022-10-25T07:08:43.180Z,1009.17
2022-10-25T07:09:43.158Z,1009.17
2022-10-25T07:10:43.145Z,1009.17
2022-10-25T07:11:43.173Z,1009.20
2022-10-25T07:12:43.121Z,1009.20
2022-10-25T07:13:43.117Z,1009.24
2022-10-25T07:14:43.107Z,1009.18
2022-10-25T07:15:43.090Z,1009.16
2022-10-25T07:16:43.085Z,1009.16
2022-10-25T07:17:43.086Z,1009.19
2022-10-25T07:18:43.058Z,1009.20
2022-10-25T07:19:43.047Z,1009.13
2022-10-25T07:20:43.036Z,1009.20
2022-10-25T07:21:43.040Z,1009.22
2022-10-25T07:22:43.014Z,1009.26
2022-10-25T07:23:43.016Z,1009.19
2022-10-25T07:24:42.991Z,1009.20
2022-10-25T07:25:42.981Z,1009.23
2022-10-25T07:26:42.979Z,1009.27
2022-10-25T07:27:42.958Z,1009.21
2022-10-25T07:28:42.946Z,1009.25
2022-10-25T07:29:42.953Z,1009.27
2022-10-25T07:30:42.924Z,1009.25
2022-10-25T07:31:42.926Z,1009.20
2022-10-25T07:32:42.947Z,1009.23
2022-10-25T07:33:42.913Z,1009.22
2022-10-25T07:34:42.881Z,1009.21
2022-10-25T07:35:52.471Z,1009.27
2022-10-25T07:36:43.873Z,1009.23
2022-10-25T07:37:42.851Z,1009.28
2022-10-25T07:38:42.853Z,1009.32
2022-10-25T07:39:42.828Z,1009.34
2022-10-25T07:40:42.816Z,1009.34
2022-10-25T07:41:42.819Z,1009.36
2022-10-25T07:42:42.799Z,1009.34
2022-10-25T07:43:42.831Z,1009.33
2022-10-25T07:44:42.806Z,1009.30
2022-10-25T07:45:42.766Z,1009.32
2022-10-25T07:46:42.766Z,1009.39
2022-10-25T07:47:42.744Z,1009.41
2022-10-25T07:48:42.730Z,1009.37
2022-10-25T07:49:42.735Z,1009.40
2022-10-25T07:50:42.724Z,1009.41
2022-10-25T07:51:42.711Z,1009.35
2022-10-25T07:52:42.708Z,1009.45
2022-10-25T07:53:42.683Z,1009.42
2022-10-25T07:55:42.657Z,1009.34
2022-10-25T07:56:42.661Z,1009.38
2022-10-25T07:57:42.636Z,1009.36
2022-10-25T07:58:42.624Z,1009.32
2022-10-25T07:59:42.612Z,1009.40
2022-10-25T08:00:42.603Z,1009.33
2022-10-25T08:01:42.668Z,1009.36
2022-10-25T08:02:42.599Z,1009.39
2022-10-25T08:03:42.599Z,1009.35
2022-10-25T08:04:42.561Z,1009.38
2022-10-25T08:05:42.567Z,1009.39
2022-10-25T08:06:42.552Z,1009.40
2022-10-25T08:07:42.530Z,1009.42
2022-10-25T08:08:42.522Z,1009.40
2022-10-25T08:09:42.508Z,1009.44
2022-10-25T08:10:42.498Z,1009.41
2022-10-25T08:11:42.499Z,1009.44
2022-10-25T08:12:42.531Z,1009.44
2022-10-25T08:13:42.466Z,1009.43
2022-10-25T08:14:43.325Z,1009.45
2022-10-25T08:15:42.443Z,1009.47
2022-10-25T08:16:42.448Z,1009.42
2022-10-25T08:17:42.461Z,1009.44
2022-10-25T08:18:42.413Z,1009.41
2022-10-25T08:19:42.404Z,1009.46
2022-10-25T08:21:01.145Z,1009.48
2022-10-25T08:21:43.416Z,1009.49
2022-10-25T08:22:42.375Z,1009.50
2022-10-25T08:23:42.365Z,1009.50
2022-10-25T08:24:42.349Z,1009.51
2022-10-25T08:25:42.369Z,1009.47
2022-10-25T08:26:42.342Z,1009.50
2022-10-25T08:27:42.318Z,1009.55
2022-10-25T08:28:42.305Z,1009.55
2022-10-25T08:29:42.294Z,1009.53
2022-10-25T08:30:42.284Z,1009.52
2022-10-25T08:31:42.315Z,1009.52
2022-10-25T08:32:42.299Z,1009.54
2022-10-25T08:33:42.272Z,1009.59
2022-10-25T08:34:42.240Z,1009.55
2022-10-25T08:35:42.226Z,1009.53
2022-10-25T08:36:42.230Z,1009.54
2022-10-25T08:37:42.222Z,1009.52
2022-10-25T08:38:42.196Z,1009.55
2022-10-25T08:39:42.184Z,1009.54
2022-10-25T08:40:42.255Z,1009.56
2022-10-25T08:41:42.171Z,1009.56
2022-10-25T08:42:42.153Z,1009.61
2022-10-25T08:43:42.139Z,1009.58
2022-10-25T08:44:42.132Z,1009.61
2022-10-25T08:45:43.807Z,1009.61
2022-10-25T08:46:42.117Z,1009.63
2022-10-25T08:47:42.096Z,1009.62
2022-10-25T08:48:42.087Z,1009.65
2022-10-25T08:49:42.074Z,1009.64
2022-10-25T08:50:42.087Z,1009.68
2022-10-25T08:51:42.061Z,1009.69
2022-10-25T08:52:42.045Z,1009.68
2022-10-25T08:53:42.114Z,1009.70
2022-10-25T08:54:42.022Z,1009.73
2022-10-25T08:55:58.813Z,1009.70
2022-10-25T08:56:56.997Z,1009.68
2022-10-25T08:57:42.988Z,1009.69
2022-10-25T08:58:41.978Z,1009.69
2022-10-25T08:59:41.981Z,1009.70
2022-10-25T09:00:41.997Z,1009.74
2022-10-25T09:01:42.039Z,1009.71
2022-10-25T09:02:41.937Z,1009.68
2022-10-25T09:03:41.926Z,1009.71
2022-10-25T09:04:41.915Z,1009.73
2022-10-25T09:05:41.902Z,1009.67
2022-10-25T09:06:41.960Z,1009.64
2022-10-25T09:07:42.794Z,1009.73
2022-10-25T09:08:41.871Z,1009.67
2022-10-25T09:09:41.875Z,1009.68
2022-10-25T09:10:41.852Z,1009.69
2022-10-25T09:11:41.845Z,1009.70
2022-10-25T09:12:41.828Z,1009.69
2022-10-25T09:13:41.817Z,1009.73
2022-10-25T09:14:41.806Z,1009.69
2022-10-25T09:15:43.137Z,1009.77
2022-10-25T09:16:41.796Z,1009.77
2022-10-25T09:17:41.774Z,1009.75
2022-10-25T09:18:41.766Z,1009.72
2022-10-25T09:19:41.753Z,1009.72
2022-10-25T09:20:41.741Z,1009.77
2022-10-25T09:21:41.740Z,1009.80
2022-10-25T09:22:41.719Z,1009.75
2022-10-25T09:23:41.711Z,1009.76
2022-10-25T09:24:41.702Z,1009.75
2022-10-25T09:25:41.704Z,1009.78
2022-10-25T09:26:41.687Z,1009.81
2022-10-25T09:27:41.668Z,1009.84
2022-10-25T09:28:41.682Z,1009.80
2022-10-25T09:29:41.643Z,1009.83
2022-10-25T09:30:41.656Z,1009.87
2022-10-25T09:31:41.624Z,1009.95
2022-10-25T09:32:41.623Z,1009.87
2022-10-25T09:33:41.601Z,1009.86
2022-10-25T09:34:41.591Z,1009.89
2022-10-25T09:35:41.585Z,1009.84
2022-10-25T09:36:41.570Z,1009.91
2022-10-25T09:37:41.570Z,1009.90
2022-10-25T09:38:41.548Z,1009.96
2022-10-25T09:39:41.536Z,1009.97
2022-10-25T09:40:45.159Z,1009.90
2022-10-25T09:41:42.532Z,1009.98
2022-10-25T09:42:41.518Z,1009.89
2022-10-25T09:43:41.493Z,1009.90
2022-10-25T09:44:41.491Z,1009.89
2022-10-25T09:45:42.136Z,1009.94
2022-10-25T09:46:41.595Z,1009.97
2022-10-25T09:47:41.455Z,1009.94
2022-10-25T09:48:41.440Z,1009.91
2022-10-25T09:49:41.428Z,1009.91
2022-10-25T09:50:41.422Z,1009.88
2022-10-25T09:51:41.440Z,1009.94
2022-10-25T09:52:41.397Z,1009.94
2022-10-25T09:53:41.387Z,1009.93
2022-10-25T09:54:41.379Z,1009.93
2022-10-25T09:55:41.363Z,1009.94
2022-10-25T09:56:41.368Z,1009.97
2022-10-25T09:57:41.359Z,1010.03
2022-10-25T09:58:41.334Z,1009.97
2022-10-25T09:59:41.362Z,1009.98
2022-10-25T10:00:41.310Z,1010.00
2022-10-25T10:01:41.437Z,1009.98
2022-10-25T10:02:41.416Z,1010.05
2022-10-25T10:03:41.291Z,1010.05
2022-10-25T10:04:41.272Z,1010.06
2022-10-25T10:05:41.258Z,1010.04
2022-10-25T10:06:41.259Z,1010.04
2022-10-25T10:07:41.237Z,1010.10
2022-10-25T10:08:41.229Z,1010.09
2022-10-25T10:09:45.698Z,1010.13
2022-10-25T10:10:41.205Z,1010.14
2022-10-25T10:11:41.203Z,1010.16
2022-10-25T10:12:41.184Z,1010.15
2022-10-25T10:13:41.191Z,1010.16
2022-10-25T10:14:41.169Z,1010.18
2022-10-25T10:15:41.151Z,1010.15
2022-10-25T10:16:41.150Z,1010.22
2022-10-25T10:17:41.130Z,1010.23
2022-10-25T10:18:41.118Z,1010.17
2022-10-25T10:19:41.106Z,1010.18
2022-10-25T10:20:41.095Z,1010.23
2022-10-25T10:21:41.094Z,1010.23
2022-10-25T10:22:41.122Z,1010.20
2022-10-25T10:23:41.064Z,1010.23
2022-10-25T10:24:41.076Z,1010.18
2022-10-25T10:25:41.040Z,1010.21
2022-10-25T10:26:41.039Z,1010.24
2022-10-25T10:27:41.017Z,1010.28
2022-10-25T10:28:41.014Z,1010.32
2022-10-25T10:29:41.028Z,1010.24
2022-10-25T10:30:40.989Z,1010.28
2022-10-25T10:31:40.988Z,1010.29
2022-10-25T10:33:40.954Z,1010.31
2022-10-25T10:34:40.943Z,1010.30
2022-10-25T10:35:40.932Z,1010.27
2022-10-25T10:36:40.932Z,1010.29
2022-10-25T10:37:40.913Z,1010.23
2022-10-25T10:38:40.904Z,1010.27
2022-10-25T10:39:40.891Z,1010.26
2022-10-25T10:40:40.882Z,1010.28
2022-10-25T10:41:40.883Z,1010.25
2022-10-25T10:42:40.873Z,1010.28
2022-10-25T10:43:40.872Z,1010.28
2022-10-25T10:44:40.842Z,1010.26
2022-10-25T10:45:40.880Z,1010.31
2022-10-25T10:46:40.876Z,1010.26
2022-10-25T10:47:40.806Z,1010.31
2022-10-25T10:48:42.908Z,1010.31
2022-10-25T10:49:40.783Z,1010.34
2022-10-25T10:50:44.950Z,1010.31
2022-10-25T10:51:44.383Z,1010.32
2022-10-25T10:52:40.753Z,1010.34
2022-10-25T10:53:40.742Z,1010.39
2022-10-25T10:54:40.730Z,1010.32
2022-10-25T10:55:40.719Z,1010.35
2022-10-25T10:56:40.726Z,1010.33
2022-10-25T10:57:40.709Z,1010.37
2022-10-25T10:58:40.721Z,1010.39
2022-10-25T10:59:40.695Z,1010.34
2022-10-25T11:00:40.670Z,1010.34
2022-10-25T11:01:40.861Z,1010.34
2022-10-25T11:02:40.957Z,1010.34
2022-10-25T11:03:48.656Z,1010.28
2022-10-25T11:04:41.623Z,1010.23
2022-10-25T11:05:40.609Z,1010.29
2022-10-25T11:06:40.671Z,1010.24
2022-10-25T11:07:40.621Z,1010.29
2022-10-25T11:08:40.579Z,1010.26
2022-10-25T11:09:40.571Z,1010.26
2022-10-25T11:10:40.602Z,1010.27
2022-10-25T11:11:40.559Z,1010.28
2022-10-25T11:12:41.371Z,1010.28
2022-10-25T11:13:40.528Z,1010.31
2022-10-25T11:14:40.518Z,1010.26
2022-10-25T11:15:40.505Z,1010.27
2022-10-25T11:16:40.507Z,1010.24
2022-10-25T11:17:40.597Z,1010.27
2022-10-25T11:18:40.472Z,1010.26
2022-10-25T11:19:40.471Z,1010.32
2022-10-25T11:20:40.526Z,1010.32
2022-10-25T11:21:40.451Z,1010.34
2022-10-25T11:22:40.491Z,1010.31
2022-10-25T11:23:40.422Z,1010.36
2022-10-25T11:24:40.411Z,1010.35
2022-10-25T11:25:40.399Z,1010.32
2022-10-25T11:26:40.403Z,1010.34
2022-10-25T11:27:40.377Z,1010.32
2022-10-25T11:28:40.369Z,1010.27
2022-10-25T11:29:40.380Z,1010.22
2022-10-25T11:30:40.350Z,1010.31
2022-10-25T11:31:40.350Z,1010.19
2022-10-25T11:32:40.333Z,1010.28
2022-10-25T11:33:40.428Z,1010.22
2022-10-25T11:34:40.393Z,1010.22
2022-10-25T11:35:40.293Z,1010.22
2022-10-25T11:36:40.304Z,1010.21
2022-10-25T11:37:40.277Z,1010.24
2022-10-25T11:38:40.265Z,1010.21
2022-10-25T11:39:41.248Z,1010.19
2022-10-25T11:40:40.250Z,1010.20
2022-10-25T11:41:40.254Z,1010.22
2022-10-25T11:42:40.222Z,1010.18
2022-10-25T11:43:40.210Z,1010.22
2022-10-25T11:44:42.953Z,1010.19
2022-10-25T11:45:41.240Z,1010.15
2022-10-25T11:46:40.195Z,1010.17
2022-10-25T11:47:43.455Z,1010.29
2022-10-25T11:48:40.161Z,1010.29
2022-10-25T11:49:40.274Z,1010.27
2022-10-25T11:50:40.139Z,1010.30
2022-10-25T11:51:40.139Z,1010.37
2022-10-25T11:52:40.117Z,1010.23
2022-10-25T11:53:40.106Z,1010.30
2022-10-25T11:54:40.101Z,1010.33
2022-10-25T11:55:40.177Z,1010.27
2022-10-25T11:56:40.095Z,1010.31
2022-10-25T11:57:40.065Z,1010.32
2022-10-25T11:58:40.059Z,1010.32
2022-10-25T11:59:40.044Z,1010.31
2022-10-25T12:00:40.205Z,1010.29
2022-10-25T12:01:40.107Z,1010.30
2022-10-25T12:02:40.089Z,1010.38
2022-10-25T12:03:40.002Z,1010.44
2022-10-25T12:04:39.995Z,1010.39
2022-10-25T12:05:40.126Z,1010.39
2022-10-25T12:06:39.981Z,1010.37
2022-10-25T12:07:39.959Z,1010.36